Latest Weather Observations for Rutherglen

IDV60801

Issued at 6:32 pm EDT Sunday 11 December 2016 (issued every 30 minutes, with the page automatically refreshed every 10 minutes)

About weather observations | Map of weather stations | Latest weather observations for VIC | Other Formats
Station Details ID: 082039 Name: RUTHERGLEN RESEARCH Lat: -36.10 Lon: 146.51 Height: 175.0 m
Data from the previous 72 hours. | See also: Recent months at Rutherglen
Date/Time
EDT
Temp
°C
App
Temp
°C
Dew
Point
°C
Rel
Hum
%
Delta-T
°C
Wind Press
QNH
hPa
Press
MSL
hPa
Rain since
9am
mm
Dir  Spd
km/h
Gust
km/h
Spd
kts
Gust
kts
11/06:30pm 29.0 25.9 3.8 20 12.9 WSW 9 17 5 9 - - 0.0
11/06:00pm 29.0 26.1 4.5 21 12.7 SSW 9 15 5 8 - - 0.0
11/05:30pm 29.4 27.1 5.5 22 12.6 WNW 7 17 4 9 - - 0.0
11/05:00pm 29.3 26.6 5.4 22 12.6 NNW 9 13 5 7 - - 0.0
11/04:30pm 29.8 27.2 4.4 20 13.2 S 7 17 4 9 - - 0.0
11/04:00pm 29.4 25.1 3.4 19 13.2 W 15 22 8 12 - - 0.0
11/03:30pm 29.2 26.0 5.3 22 12.5 S 11 24 6 13 - - 0.0
11/03:00pm 28.5 24.2 5.4 23 12.1 WSW 17 28 9 15 - - 0.0
11/02:30pm 28.8 26.4 6.8 25 11.8 NE 9 15 5 8 - - 0.0
11/02:00pm 27.9 25.4 6.6 26 11.3 WSW 9 19 5 10 - - 0.0
11/01:30pm 26.9 24.0 6.3 27 10.8 W 11 17 6 9 - - 0.0
11/01:00pm 26.6 24.1 6.6 28 10.6 W 9 15 5 8 - - 0.0
11/12:30pm 26.2 23.8 6.8 29 10.3 S 9 17 5 9 - - 0.0
11/12:00pm 24.9 21.9 6.1 30 9.7 NW 11 19 6 10 - - 0.0
11/11:30am 24.8 22.6 7.9 34 9.0 NNE 9 15 5 8 - - 0.0
11/11:00am 24.2 22.3 9.0 38 8.3 NNW 9 13 5 7 - - 0.0
11/10:30am 23.0 20.9 8.3 39 7.8 NNE 9 17 5 9 - - 0.0
11/10:00am 22.6 20.8 9.4 43 7.2 NE 9 17 5 9 - - 0.0
11/09:30am 21.5 19.8 10.0 48 6.3 E 9 15 5 8 - - 0.0
11/09:00am 20.4 19.1 9.9 51 5.7 ESE 7 13 4 7 - - 0.0
11/08:30am 18.5 17.6 10.6 60 4.3 ESE 6 9 3 5 - - 0.0
11/08:00am 17.5 17.2 11.5 68 3.3 ESE 4 9 2 5 - - 0.0
11/07:30am 14.0 13.6 11.2 83 1.5 SSE 4 7 2 4 - - 0.0
11/07:00am 11.5 11.9 11.3 99 0.1 CALM 0 0 0 0 - - 0.0
11/06:30am 7.8 7.3 7.8 100 0.0 CALM 0 0 0 0 - - 0.0
11/06:00am 6.3 5.5 6.3 100 0.0 CALM 0 0 0 0 - - 0.0
11/05:30am 6.9 5.4 6.9 100 0.0 SSE 4 6 2 3 - - 0.0
11/05:00am 6.5 5.7 6.5 100 0.0 CALM 0 0 0 0 - - 0.0
11/04:30am 7.2 6.5 7.1 99 0.0 CALM 0 0 0 0 - - 0.0
11/04:00am 8.6 8.3 8.5 99 0.0 CALM 0 0 0 0 - - 0.0
11/03:30am 9.6 9.0 7.4 86 1.1 CALM 0 0 0 0 - - 0.0
11/03:00am 10.3 8.5 8.1 86 1.1 WSW 7 11 4 6 - - 0.0
11/02:30am 11.0 9.2 7.9 81 1.5 WSW 7 9 4 5 - - 0.0
11/02:00am 10.6 8.4 7.8 83 1.4 WSW 9 13 5 7 - - 0.0
11/01:30am 10.9 8.5 7.2 78 1.8 SW 9 11 5 6 - - 0.0
11/01:00am 11.6 10.1 8.3 80 1.6 SW 6 7 3 4 - - 0.0
11/12:30am 12.6 11.0 7.9 73 2.3 SSW 6 7 3 4 - - 0.0
11/12:00am 14.4 12.4 7.2 62 3.6 SW 7 9 4 5 - - 0.0
 
Date/Time
EDT
Temp
°C
App
Temp
°C
Dew
Point
°C
Rel
Hum
%
Delta-T
°C
Wind Press
QNH
hPa
Press
MSL
hPa
Rain since
9am
mm
Dir  Spd
km/h
Gust
km/h
Spd
kts
Gust
kts
10/11:30pm 15.2 12.9 7.5 60 3.9 SW 9 11 5 6 - - 0.0
10/11:00pm 15.4 13.1 7.4 59 4.0 SW 9 13 5 7 - - 0.0
10/10:30pm 15.2 12.7 6.7 57 4.2 SW 9 13 5 7 - - 0.0
10/10:00pm 16.2 12.8 6.1 51 4.9 WSW 13 17 7 9 - - 0.0
10/09:30pm 17.3 13.6 4.6 43 6.1 WSW 13 17 7 9 - - 0.0
10/09:00pm 18.4 14.3 4.6 40 6.7 WSW 15 17 8 9 - - 0.0
10/08:30pm 19.4 15.7 4.7 38 7.2 WSW 13 15 7 8 - - 0.0
10/08:00pm 22.6 18.3 5.1 32 8.8 WSW 17 22 9 12 - - 0.0
10/07:30pm 24.6 20.2 2.7 24 10.7 WSW 15 20 8 11 - - 0.0
10/07:00pm 25.5 21.6 3.5 24 10.9 SW 13 20 7 11 - - 0.0
10/06:30pm 25.9 21.6 3.2 23 11.2 W 15 22 8 12 - - 0.0
10/06:00pm 26.3 22.9 4.1 24 11.2 SW 11 28 6 15 - - 0.0
10/05:30pm 26.6 22.3 3.2 22 11.6 WSW 15 22 8 12 - - 0.0
10/05:00pm 26.6 22.9 4.4 24 11.3 SW 13 20 7 11 - - 0.0
10/04:30pm 26.1 22.8 4.6 25 10.9 SSW 11 17 6 9 - - 0.0
10/04:00pm 26.1 22.7 5.7 27 10.6 SW 13 20 7 11 - - 0.0
10/03:30pm 25.7 23.1 4.2 25 10.8 NE 7 13 4 7 - - 0.0
10/03:00pm 25.4 21.7 4.5 26 10.6 WNW 13 19 7 10 - - 0.0
10/02:30pm 25.0 21.3 4.7 27 10.3 W 13 22 7 12 - - 0.0
10/02:00pm 24.2 20.6 5.1 29 9.7 WSW 13 22 7 12 - - 0.0
10/01:30pm 23.8 21.6 6.1 32 9.1 N 7 13 4 7 - - 0.0
10/01:00pm 22.8 20.6 6.1 34 8.5 NNE 7 15 4 8 - - 0.0
10/12:30pm 22.1 19.2 6.3 36 8.1 N 11 20 6 11 - - 0.0
10/12:00pm 21.4 19.2 6.1 37 7.8 NNW 7 13 4 7 - - 0.0
10/11:30am 20.2 17.0 6.9 42 6.8 NW 13 20 7 11 - - 0.0
10/11:00am 20.0 17.5 6.4 41 6.9 NNW 9 13 5 7 - - 0.0
10/10:30am 20.1 18.5 7.8 45 6.4 E 6 15 3 8 - - 0.0
10/10:00am 18.1 16.1 7.2 49 5.5 N 7 13 4 7 - - 0.0
10/09:30am 16.7 14.5 6.2 50 5.2 SE 7 9 4 5 - - 0.0
10/09:00am 14.8 12.6 6.4 57 4.1 W 7 11 4 6 - - 0.0
10/08:30am 13.2 11.1 6.5 64 3.2 WNW 7 13 4 7 - - 0.0
10/08:00am 11.7 10.0 7.4 75 2.1 W 6 7 3 4 - - 0.0
10/07:30am 10.0 9.0 7.4 84 1.2 SW 2 6 1 3 - - 0.0
10/07:00am 8.9 8.6 8.8 99 0.0 CALM 0 0 0 0 - - 0.0
10/06:30am 5.8 4.8 5.8 100 0.0 CALM 0 6 0 3 - - 0.0
10/06:00am 4.2 2.9 4.2 100 0.0 CALM 0 0 0 0 - - 0.0
10/05:30am 3.9 2.5 3.8 99 0.0 CALM 0 0 0 0 - - 0.0
10/05:00am 4.6 3.4 4.5 99 0.0 CALM 0 0 0 0 - - 0.0
10/04:30am 6.5 4.4 5.9 96 0.3 WSW 6 7 3 4 - - 0.0
10/04:00am 6.7 4.5 6.1 96 0.3 WSW 7 9 4 5 - - 0.0
10/03:30am 6.5 4.2 5.5 93 0.4 WSW 7 9 4 5 - - 0.0
10/03:00am 6.8 4.0 5.1 89 0.8 WSW 9 13 5 7 - - 0.0
10/02:30am 8.4 5.7 5.7 83 1.2 SW 9 15 5 8 - - 0.0
10/02:00am 7.9 5.6 5.5 85 1.1 SW 7 9 4 5 - - 0.0
10/01:30am 9.1 6.5 6.0 81 1.4 SW 9 13 5 7 - - 0.0
10/01:00am 8.2 5.1 5.5 83 1.2 WSW 11 13 6 7 - - 0.0
10/12:30am 9.2 6.1 5.6 78 1.7 WSW 11 17 6 9 - - 0.0
10/12:00am 9.8 6.2 5.2 73 2.1 SW 13 17 7 9 - - 0.0
 
Date/Time
EDT
Temp
°C
App
Temp
°C
Dew
Point
°C
Rel
Hum
%
Delta-T
°C
Wind Press
QNH
hPa
Press
MSL
hPa
Rain since
9am
mm
Dir  Spd
km/h
Gust
km/h
Spd
kts
Gust
kts
09/11:30pm 10.3 7.1 4.9 69 2.5 SW 11 15 6 8 - - 0.0
09/11:00pm 10.6 6.9 4.5 66 2.8 WSW 13 17 7 9 - - 0.0
09/10:30pm 11.6 7.9 4.3 61 3.3 SW 13 17 7 9 - - 0.0
09/10:00pm 12.6 8.9 4.3 57 3.8 SW 13 20 7 11 - - 0.0
09/09:30pm 13.0 8.9 4.2 55 4.0 SW 15 22 8 12 - - 0.0
09/09:00pm 13.9 9.0 4.2 52 4.5 SW 19 26 10 14 - - 0.0
09/08:30pm 14.6 9.7 4.3 50 4.8 SW 19 28 10 15 - - 0.0
09/08:00pm 15.9 10.5 4.3 46 5.5 SW 22 35 12 19 - - 0.0
09/07:30pm 17.2 11.4 4.2 42 6.2 SW 24 37 13 20 - - 0.0
09/07:00pm 17.9 12.4 4.1 40 6.6 SW 22 32 12 17 - - 0.0
09/06:30pm 18.5 12.6 3.9 38 7.0 SW 24 44 13 24 - - 0.0
09/06:00pm 18.9 14.0 5.0 40 6.8 SW 20 33 11 18 - - 0.0
09/05:30pm 19.1 12.6 4.8 39 7.0 WSW 28 37 15 20 - - 0.0
09/05:05pm 18.8 12.1 3.4 36 7.3 SW 28 48 15 26 - - 0.0
09/05:00pm 18.8 12.8 3.4 36 7.3 SW 24 48 13 26 - - 0.0
09/04:30pm 19.4 13.7 4.7 38 7.2 SW 24 39 13 21 - - 0.0
09/04:00pm 19.2 13.8 4.6 38 7.1 SSW 22 37 12 20 - - 0.0
09/03:30pm 19.5 12.9 4.0 36 7.5 SW 28 46 15 25 - - 0.0
09/03:08pm 19.1 12.6 4.5 38 7.1 WSW 28 46 15 25 - - 0.0
09/03:00pm 18.1 10.9 3.2 37 7.0 SW 30 46 16 25 - - 0.0
09/02:30pm 18.3 11.8 4.5 40 6.6 SW 28 43 15 23 - - 0.0
09/02:00pm 18.3 12.1 4.1 39 6.8 SW 26 39 14 21 - - 0.0
09/01:30pm 17.2 10.1 3.8 41 6.3 SW 30 46 16 25 - - 0.0
09/01:08pm 18.5 11.8 3.6 37 7.1 WSW 28 48 15 26 - - 0.0
09/01:00pm 18.8 12.7 4.6 39 6.9 SW 26 41 14 22 - - 0.0
09/12:30pm 17.2 10.4 3.1 39 6.5 SW 28 46 15 25 - - 0.0
09/12:00pm 16.5 9.8 3.9 43 5.9 SW 28 43 15 23 - - 0.0
09/11:30am 16.0 9.4 4.4 46 5.5 SW 28 46 15 25 - - 0.0
09/11:20am 15.4 8.8 4.2 47 5.2 SW 28 46 15 25 - - 0.0
09/11:00am 16.3 9.9 5.3 48 5.3 SW 28 41 15 22 - - 0.0
09/10:30am 14.5 8.7 4.5 51 4.7 WSW 24 39 13 21 - - 0.0
09/10:00am 15.1 8.8 5.9 54 4.4 WSW 28 35 15 19 - - 0.0
09/09:30am 13.6 7.1 4.7 55 4.1 SW 28 43 15 23 - - 0.0
09/09:00am 13.5 7.9 5.2 57 3.9 SW 24 41 13 22 - - 4.6
09/08:30am 12.6 7.2 4.6 58 3.7 SW 22 41 12 22 - - 4.6
09/08:00am 12.2 6.6 5.4 63 3.2 WSW 24 35 13 19 - - 4.6
09/07:30am 11.3 5.7 5.2 66 2.8 WSW 24 39 13 21 - - 4.6
09/07:00am 10.5 6.4 6.1 74 2.1 WSW 17 24 9 13 - - 4.6
09/06:30am 9.6 5.5 6.3 80 1.5 W 17 24 9 13 - - 4.6
09/06:00am 9.4 5.1 6.8 84 1.2 W 19 24 10 13 - - 4.6
09/05:30am 9.6 5.1 6.9 83 1.3 W 20 32 11 17 - - 4.6
09/05:00am 9.8 4.5 6.7 81 1.5 W 24 33 13 18 - - 4.6
09/04:30am 10.0 5.5 6.9 81 1.5 W 20 28 11 15 - - 4.6
09/04:00am 10.7 6.1 6.6 76 1.9 WSW 20 30 11 16 - - 4.6
09/03:30am 11.2 7.0 7.5 78 1.8 WSW 19 28 10 15 - - 4.6
09/03:00am 11.8 6.9 6.9 72 2.4 WSW 22 32 12 17 - - 4.6
09/02:30am 12.9 8.2 9.4 79 1.8 WSW 24 35 13 19 - - 4.6
09/02:00am 13.1 7.8 9.9 81 1.7 WSW 28 39 15 21 - - 4.6
09/01:30am 13.0 8.9 10.2 83 1.5 WSW 22 32 12 17 - - 4.6
09/01:00am 13.1 8.9 9.9 81 1.7 WSW 22 32 12 17 - - 4.6
09/12:30am 13.6 9.0 9.8 78 2.0 WSW 24 35 13 19 - - 4.6
09/12:00am 13.5 8.1 9.6 77 2.0 WSW 28 39 15 21 - - 4.6
 
Date/Time
EDT
Temp
°C
App
Temp
°C
Dew
Point
°C
Rel
Hum
%
Delta-T
°C
Wind Press
QNH
hPa
Press
MSL
hPa
Rain since
9am
mm
Dir  Spd
km/h
Gust
km/h
Spd
kts
Gust
kts
08/11:30pm 14.1 9.8 9.3 73 2.5 WSW 22 35 12 19 - - 4.6
08/11:00pm 13.4 9.5 9.6 78 2.0 WSW 20 28 11 15 - - 4.6
08/10:30pm 13.7 9.8 9.6 76 2.1 WSW 20 28 11 15 - - 4.6
08/10:00pm 11.5 12.0 11.5 100 0.0 CALM 0 7 0 4 - - 4.6
08/09:30pm 11.2 9.9 11.2 100 0.0 S 9 13 5 7 - - 4.6
08/09:00pm 12.3 12.6 12.3 100 0.0 E 2 7 1 4 - - 4.6
08/08:30pm 13.0 13.6 13.0 100 0.0 NE 2 6 1 3 - - 4.6
08/08:00pm 13.9 13.4 13.9 100 0.0 E 9 13 5 7 - - 4.6
08/07:30pm 15.0 14.1 14.8 99 0.1 ENE 13 17 7 9 - - 4.6
08/07:00pm 15.6 15.3 14.5 93 0.6 NE 9 15 5 8 - - 4.6

Other Formats:

Comma delimited format used in spreadsheet applications
http://www.bom.gov.au/fwo/IDV60801/IDV60801.95837.axf

JavaScript Object Notation format (JSON) in row-major order
http://www.bom.gov.au/fwo/IDV60801/IDV60801.95837.json